createdAt,value
2022-09-03T00:02:12.929Z,54.29
2022-09-03T00:08:09.970Z,54.01
2022-09-03T00:14:04.869Z,53.87
2022-09-03T00:19:45.352Z,53.83
2022-09-03T00:25:42.606Z,54.03
2022-09-03T00:31:27.774Z,53.98
2022-09-03T00:36:59.293Z,54.32
2022-09-03T00:42:48.180Z,54.15
2022-09-03T00:48:32.147Z,54.34
2022-09-03T00:54:09.658Z,54.22
2022-09-03T00:59:49.804Z,54.21
2022-09-03T01:05:41.313Z,54.25
2022-09-03T01:11:32.047Z,54.12
2022-09-03T01:17:15.459Z,54.10
2022-09-03T01:22:49.645Z,54.25
2022-09-03T01:28:43.386Z,54.12
2022-09-03T01:34:39.750Z,54.33
2022-09-03T01:40:35.183Z,54.36
2022-09-03T01:46:09.701Z,54.35
2022-09-03T01:51:42.215Z,54.32
2022-09-03T01:57:37.096Z,54.35
2022-09-03T02:03:10.464Z,54.26
2022-09-03T02:08:42.337Z,54.53
2022-09-03T02:14:14.357Z,54.24
2022-09-03T02:19:45.768Z,54.11
2022-09-03T02:25:17.764Z,54.29
2022-09-03T02:30:49.159Z,54.21
2022-09-03T02:36:27.668Z,54.15
2022-09-03T02:41:59.718Z,54.63
2022-09-03T02:47:32.510Z,53.91
2022-09-03T02:53:03.799Z,54.20
2022-09-03T02:58:35.522Z,54.09
2022-09-03T03:04:07.005Z,54.25
2022-09-03T03:09:37.828Z,54.63
2022-09-03T03:15:09.098Z,54.56
2022-09-03T03:20:40.380Z,54.21
2022-09-03T03:26:15.448Z,54.48
2022-09-03T03:31:46.799Z,53.95
2022-09-03T03:37:17.844Z,53.96
2022-09-03T03:42:50.223Z,54.46
2022-09-03T03:48:21.615Z,53.92
2022-09-03T03:53:58.607Z,53.87
2022-09-03T03:59:31.726Z,53.99
2022-09-03T04:05:03.007Z,53.75
2022-09-03T04:10:34.681Z,54.15
2022-09-03T04:16:10.800Z,53.82
2022-09-03T04:21:41.860Z,54.02
2022-09-03T04:27:12.803Z,53.84
2022-09-03T04:32:56.425Z,54.42
2022-09-03T04:38:29.910Z,53.82
2022-09-03T04:44:00.793Z,54.38
2022-09-03T04:49:31.755Z,53.93
2022-09-03T04:55:03.119Z,53.72
2022-09-03T05:00:34.348Z,54.51
2022-09-03T05:06:06.522Z,54.32
2022-09-03T05:11:38.806Z,53.90
2022-09-03T05:17:09.918Z,53.99
2022-09-03T05:22:40.932Z,53.78
2022-09-03T05:28:12.269Z,53.89
2022-09-03T05:33:46.122Z,53.94
2022-09-03T05:39:17.297Z,54.08
2022-09-03T05:44:49.912Z,53.79
2022-09-03T05:50:21.243Z,54.30
2022-09-03T05:56:00.277Z,54.30
2022-09-03T06:01:45.714Z,54.04
2022-09-03T06:07:25.868Z,54.18
2022-09-03T06:12:58.340Z,54.50
2022-09-03T06:18:30.705Z,54.88
2022-09-03T06:24:02.754Z,54.85
2022-09-03T06:29:35.952Z,55.10
2022-09-03T06:35:08.163Z,55.69
2022-09-03T06:40:39.292Z,56.62
2022-09-03T06:46:12.831Z,56.81
2022-09-03T06:51:44.293Z,56.56
2022-09-03T06:57:15.400Z,56.61
2022-09-03T07:02:48.895Z,57.25
2022-09-03T07:08:20.144Z,57.46
2022-09-03T07:13:52.030Z,56.71
2022-09-03T07:19:23.278Z,56.47
2022-09-03T07:24:54.696Z,56.39
2022-09-03T07:30:26.951Z,56.01
2022-09-03T07:36:14.460Z,55.98
2022-09-03T07:41:46.749Z,55.62
2022-09-03T07:47:21.591Z,55.55
2022-09-03T07:52:59.260Z,55.16
2022-09-03T07:58:31.585Z,55.07
2022-09-03T08:04:04.641Z,54.97
2022-09-03T08:09:35.976Z,55.18
2022-09-03T08:15:08.894Z,54.52
2022-09-03T08:20:40.517Z,54.67
2022-09-03T08:26:11.954Z,54.40
2022-09-03T08:31:45.805Z,54.52
2022-09-03T08:37:16.879Z,54.50
2022-09-03T08:43:13.441Z,54.17
2022-09-03T08:48:45.438Z,54.86
2022-09-03T08:54:18.127Z,54.80
2022-09-03T08:59:54.916Z,54.62
2022-09-03T09:05:43.191Z,54.59
2022-09-03T09:11:22.359Z,54.92
2022-09-03T09:17:19.652Z,55.07
2022-09-03T09:22:56.825Z,54.89
2022-09-03T09:28:34.606Z,54.79
2022-09-03T09:34:08.119Z,54.66
2022-09-03T09:39:40.954Z,54.69
2022-09-03T09:45:12.675Z,54.71
2022-09-03T09:50:44.287Z,54.76
2022-09-03T09:56:24.525Z,54.82
2022-09-03T10:02:28.948Z,55.00
2022-09-03T10:08:02.571Z,55.00
2022-09-03T10:13:43.724Z,54.58
2022-09-03T10:19:21.222Z,55.12
2022-09-03T10:25:00.057Z,53.87
2022-09-03T10:30:43.732Z,54.74
2022-09-03T10:36:26.673Z,54.36
2022-09-03T10:42:03.873Z,53.64
2022-09-03T10:47:52.804Z,53.76
2022-09-03T10:54:08.318Z,53.57
2022-09-03T10:59:48.588Z,53.76
2022-09-03T11:05:40.380Z,54.46
2022-09-03T11:11:20.469Z,55.00
2022-09-03T11:17:02.516Z,54.94
2022-09-03T11:22:36.638Z,54.33
2022-09-03T11:28:38.669Z,54.31
2022-09-03T11:34:32.538Z,54.61
2022-09-03T11:40:14.438Z,54.71
2022-09-03T11:45:52.357Z,54.89
2022-09-03T11:51:38.219Z,55.16
2022-09-03T11:57:31.677Z,55.21
2022-09-03T12:03:04.039Z,54.64
2022-09-03T12:08:58.514Z,54.93
2022-09-03T12:15:17.866Z,54.74
2022-09-03T12:21:06.402Z,55.03
2022-09-03T12:26:46.027Z,54.47
2022-09-03T12:32:21.271Z,54.78
2022-09-03T12:38:05.170Z,54.43
2022-09-03T12:43:50.646Z,54.57
2022-09-03T12:49:31.230Z,54.64
2022-09-03T12:55:27.703Z,54.94
2022-09-03T13:01:08.057Z,54.46
2022-09-03T13:13:35.924Z,54.12
2022-09-03T13:19:28.437Z,53.97
2022-09-03T13:25:28.820Z,53.67
2022-09-03T13:31:40.509Z,54.33
2022-09-03T13:37:32.119Z,54.22
2022-09-03T13:43:25.528Z,54.91
2022-09-03T13:49:33.427Z,54.54
2022-09-03T13:55:31.621Z,54.52
2022-09-03T14:01:26.755Z,54.21
2022-09-03T14:07:14.332Z,53.97
2022-09-03T14:13:08.894Z,54.12
2022-09-03T14:19:04.447Z,54.18
2022-09-03T14:24:43.443Z,54.27
2022-09-03T14:30:21.679Z,54.40
2022-09-03T14:36:15.928Z,54.35
2022-09-03T14:42:16.688Z,54.20
2022-09-03T14:48:05.243Z,54.59
2022-09-03T14:54:19.100Z,54.78
2022-09-03T14:59:50.683Z,54.65
2022-09-03T15:33:36.417Z,54.56
2022-09-03T15:39:15.423Z,55.12
2022-09-03T15:44:50.073Z,55.72
2022-09-03T15:50:50.460Z,55.30
2022-09-03T15:56:39.128Z,55.25
2022-09-03T16:02:26.350Z,55.33
2022-09-03T16:08:28.278Z,55.31
2022-09-03T16:14:22.263Z,55.46
2022-09-03T16:20:05.126Z,55.57
2022-09-03T16:26:08.487Z,55.83
2022-09-03T16:31:48.366Z,55.98
2022-09-03T16:37:37.967Z,56.27
2022-09-03T16:43:41.074Z,56.42
2022-09-03T16:49:33.737Z,56.52
2022-09-03T16:55:18.883Z,56.44
2022-09-03T17:01:06.823Z,56.39
2022-09-03T17:06:47.356Z,56.70
2022-09-03T17:12:25.419Z,56.57
2022-09-03T17:18:19.694Z,56.52
2022-09-03T17:24:07.919Z,56.46
2022-09-03T17:30:09.576Z,56.54
2022-09-03T17:36:02.496Z,56.44
2022-09-03T17:41:45.139Z,56.44
2022-09-03T17:47:53.975Z,56.50
2022-09-03T17:53:34.970Z,56.46
2022-09-03T17:59:22.805Z,56.70
2022-09-03T18:05:01.903Z,56.48
2022-09-03T18:11:12.484Z,56.61
2022-09-03T18:16:57.136Z,56.58
2022-09-03T18:22:51.337Z,56.84
2022-09-03T18:28:50.054Z,56.75
2022-09-03T18:34:47.780Z,56.87
2022-09-03T18:40:45.365Z,56.81
2022-09-03T18:53:26.437Z,56.75
2022-09-03T18:59:34.544Z,57.08
2022-09-03T19:05:38.823Z,57.21
2022-09-03T19:11:32.454Z,56.92
2022-09-03T19:17:29.218Z,57.08
2022-09-03T19:23:23.167Z,57.01
2022-09-03T19:29:14.000Z,57.03
2022-09-03T19:35:25.599Z,57.26
2022-09-03T19:41:30.042Z,57.20
2022-09-03T19:47:21.919Z,57.08
2022-09-03T19:53:17.107Z,57.53
2022-09-03T19:59:21.173Z,57.50
2022-09-03T20:05:14.228Z,57.33
2022-09-03T20:10:48.726Z,57.47
2022-09-03T20:16:27.915Z,57.43
2022-09-03T20:22:07.112Z,57.38
2022-09-03T20:27:44.727Z,57.63
2022-09-03T20:33:22.987Z,57.89
2022-09-03T20:39:12.503Z,57.81
2022-09-03T20:44:50.172Z,57.83
2022-09-03T20:50:36.980Z,58.09
2022-09-03T20:56:32.570Z,58.19
2022-09-03T21:02:10.204Z,58.38
2022-09-03T21:07:53.920Z,58.32
2022-09-03T21:13:38.179Z,58.19
2022-09-03T21:19:18.344Z,57.95
2022-09-03T21:24:59.116Z,58.10
2022-09-03T21:30:32.016Z,58.30
2022-09-03T21:36:30.542Z,58.30
2022-09-03T21:42:12.511Z,58.34
2022-09-03T21:47:59.188Z,58.69
2022-09-03T21:53:53.154Z,58.55
2022-09-03T21:59:56.431Z,58.35
2022-09-03T22:05:52.114Z,58.87
2022-09-03T22:11:42.506Z,59.41
2022-09-03T22:17:22.619Z,58.39
2022-09-03T22:23:06.116Z,58.65
2022-09-03T22:28:40.934Z,58.48
2022-09-03T22:34:19.112Z,58.24
2022-09-03T22:39:50.460Z,58.63
2022-09-03T22:45:45.444Z,58.25
2022-09-03T22:51:21.500Z,58.62
2022-09-03T22:56:53.202Z,58.41
2022-09-03T23:02:27.700Z,58.36
2022-09-03T23:08:22.529Z,58.58
2022-09-03T23:14:06.487Z,58.45
2022-09-03T23:19:50.603Z,58.74
2022-09-03T23:25:24.482Z,58.99
2022-09-03T23:31:15.905Z,58.73
2022-09-03T23:37:32.083Z,58.86
2022-09-03T23:43:14.667Z,59.29
2022-09-03T23:49:12.845Z,59.22
2022-09-03T23:55:14.042Z,59.05
